createdAt,value
2019-02-05T00:00:28.191Z,11.30
2019-02-05T00:02:57.124Z,13.53
2019-02-05T00:05:25.784Z,15.65
2019-02-05T00:07:54.420Z,14.18
2019-02-05T00:10:23.083Z,13.80
2019-02-05T00:12:51.640Z,12.95
2019-02-05T00:15:20.363Z,9.95
2019-02-05T00:17:49.293Z,10.98
2019-02-05T00:20:17.871Z,8.65
2019-02-05T00:22:46.505Z,9.70
2019-02-05T00:25:15.160Z,10.15
2019-02-05T00:27:43.793Z,9.88
2019-02-05T00:30:16.726Z,10.45
2019-02-05T00:32:45.720Z,9.43
2019-02-05T00:35:14.552Z,10.55
2019-02-05T00:37:43.251Z,11.50
2019-02-05T00:40:14.916Z,13.03
2019-02-05T00:42:43.614Z,12.33
2019-02-05T00:45:17.461Z,11.78
2019-02-05T00:47:46.115Z,10.48
2019-02-05T00:50:16.007Z,11.75
2019-02-05T00:52:44.663Z,12.88
2019-02-05T00:55:15.321Z,11.03
2019-02-05T00:57:44.000Z,11.33
2019-02-05T01:00:15.623Z,8.35
2019-02-05T01:02:44.425Z,8.48
2019-02-05T01:05:13.224Z,10.18
2019-02-05T01:07:41.949Z,7.92
2019-02-05T01:10:11.344Z,10.48
2019-02-05T01:12:40.172Z,7.42
2019-02-05T01:15:15.293Z,8.83
2019-02-05T01:17:43.947Z,10.13
2019-02-05T01:20:15.317Z,8.55
2019-02-05T01:22:44.075Z,7.72
2019-02-05T01:25:12.868Z,8.15
2019-02-05T01:27:41.532Z,9.40
2019-02-05T01:30:13.729Z,10.13
2019-02-05T01:32:42.310Z,9.93
2019-02-05T01:35:11.109Z,11.25
2019-02-05T01:37:39.780Z,10.70
2019-02-05T01:40:11.864Z,7.97
2019-02-05T01:42:40.824Z,13.22
2019-02-05T01:45:12.284Z,8.83
2019-02-05T01:47:40.869Z,10.70
2019-02-05T01:50:12.363Z,9.50
2019-02-05T01:52:40.942Z,7.60
2019-02-05T01:55:11.239Z,10.53
2019-02-05T01:57:40.268Z,10.58
2019-02-05T02:00:14.340Z,9.58
2019-02-05T02:02:43.001Z,9.68
2019-02-05T02:05:11.689Z,9.10
2019-02-05T02:07:40.311Z,10.20
2019-02-05T02:10:17.835Z,9.50
2019-02-05T02:12:46.464Z,8.88
2019-02-05T02:15:15.288Z,10.32
2019-02-05T02:17:43.911Z,8.50
2019-02-05T02:20:17.459Z,10.28
2019-02-05T02:22:47.055Z,15.23
2019-02-05T02:25:16.181Z,12.28
2019-02-05T02:27:44.867Z,11.35
2019-02-05T02:30:28.166Z,10.93
2019-02-05T02:32:56.786Z,9.30
2019-02-05T02:35:25.428Z,11.25
2019-02-05T02:37:54.186Z,8.85
2019-02-05T02:40:23.038Z,8.70
2019-02-05T02:42:51.596Z,10.78
2019-02-05T02:45:20.317Z,10.40
2019-02-05T02:47:48.877Z,12.45
2019-02-05T02:50:21.691Z,11.15
2019-02-05T02:52:51.380Z,9.18
2019-02-05T02:55:20.105Z,10.20
2019-02-05T02:57:48.651Z,9.23
2019-02-05T03:00:19.226Z,10.32
2019-02-05T03:02:47.863Z,11.05
2019-02-05T03:05:18.381Z,8.23
2019-02-05T03:07:47.371Z,9.03
2019-02-05T03:10:24.016Z,9.00
2019-02-05T03:12:52.759Z,9.90
2019-02-05T03:15:21.480Z,10.40
2019-02-05T03:17:50.217Z,9.75
2019-02-05T03:20:18.873Z,10.58
2019-02-05T03:22:47.565Z,11.38
2019-02-05T03:25:19.253Z,9.85
2019-02-05T03:27:47.874Z,11.90
2019-02-05T03:30:18.317Z,13.95
2019-02-05T03:32:46.867Z,11.53
2019-02-05T03:35:15.877Z,14.80
2019-02-05T03:37:44.560Z,11.97
2019-02-05T03:40:16.218Z,11.38
2019-02-05T03:42:44.772Z,9.63
2019-02-05T03:45:13.693Z,12.05
2019-02-05T03:47:42.384Z,11.45
2019-02-05T03:50:11.087Z,11.45
2019-02-05T03:52:42.733Z,11.68
2019-02-05T03:55:29.370Z,14.98
2019-02-05T03:58:25.098Z,13.75
2019-02-05T04:01:17.427Z,13.98
2019-02-05T04:03:54.405Z,14.85
2019-02-05T04:06:55.802Z,12.58
2019-02-05T04:09:36.336Z,13.28
2019-02-05T04:12:22.950Z,14.03
2019-02-05T04:15:03.793Z,11.60
2019-02-05T04:17:54.701Z,17.05
2019-02-05T04:20:35.136Z,15.55
2019-02-05T04:23:12.449Z,14.28
2019-02-05T04:25:44.084Z,15.43
2019-02-05T04:28:38.169Z,17.10
2019-02-05T04:31:12.779Z,11.70
2019-02-05T04:33:53.004Z,14.35
2019-02-05T04:36:33.400Z,12.65
2019-02-05T04:39:14.058Z,12.33
2019-02-05T04:41:45.723Z,13.80
2019-02-05T04:44:28.680Z,12.00
2019-02-05T04:47:08.971Z,10.65
2019-02-05T04:49:49.295Z,10.45
2019-02-05T04:52:50.658Z,10.75
2019-02-05T04:55:38.869Z,14.70
2019-02-05T04:58:28.484Z,15.30
2019-02-05T05:01:18.100Z,16.85
2019-02-05T05:03:55.479Z,15.48
2019-02-05T05:06:35.803Z,15.80
2019-02-05T05:09:23.050Z,15.53
2019-02-05T05:11:51.700Z,13.35
2019-02-05T05:14:20.260Z,13.00
2019-02-05T05:16:48.839Z,13.15
2019-02-05T05:19:17.855Z,11.60
2019-02-05T05:21:46.471Z,13.05
2019-02-05T05:24:15.212Z,10.28
2019-02-05T05:26:43.830Z,11.40
2019-02-05T05:29:12.412Z,10.58
2019-02-05T05:31:41.211Z,12.65
2019-02-05T05:34:09.877Z,11.08
2019-02-05T05:36:41.796Z,15.98
2019-02-05T05:39:10.384Z,12.40
2019-02-05T05:41:38.938Z,11.10
2019-02-05T05:44:09.563Z,15.45
2019-02-05T05:46:37.739Z,14.95
2019-02-05T05:49:06.392Z,17.20
2019-02-05T05:51:35.081Z,18.23
2019-02-05T05:54:03.748Z,17.80
2019-02-05T05:56:32.301Z,19.02
2019-02-05T05:59:00.908Z,19.52
2019-02-05T06:01:29.481Z,23.30
2019-02-05T06:03:58.080Z,18.15
2019-02-05T06:06:26.649Z,19.98
2019-02-05T06:08:55.514Z,17.52
2019-02-05T06:11:25.082Z,24.37
2019-02-05T06:13:53.692Z,25.17
2019-02-05T06:16:22.257Z,23.75
2019-02-05T06:18:50.860Z,21.40
2019-02-05T06:21:19.504Z,22.27
2019-02-05T06:23:48.185Z,17.32
2019-02-05T06:26:20.060Z,16.87
2019-02-05T06:28:47.272Z,16.93
2019-02-05T06:31:15.899Z,16.73
2019-02-05T06:33:44.476Z,20.90
2019-02-05T06:36:13.137Z,17.98
2019-02-05T06:38:44.622Z,15.05
2019-02-05T06:41:11.998Z,16.62
2019-02-05T06:43:40.760Z,14.55
2019-02-05T06:46:09.343Z,14.70
2019-02-05T06:48:37.912Z,17.67
2019-02-05T06:51:08.023Z,12.30
2019-02-05T06:53:36.580Z,14.55
2019-02-05T06:56:05.437Z,13.48
2019-02-05T06:58:45.654Z,14.30
2019-02-05T07:01:04.680Z,19.70
2019-02-05T07:03:33.311Z,17.73
2019-02-05T07:06:01.906Z,20.20
2019-02-05T07:08:30.515Z,19.02
2019-02-05T07:10:59.180Z,21.37
2019-02-05T07:13:28.912Z,18.35
2019-02-05T07:15:58.521Z,20.90
2019-02-05T07:18:27.066Z,19.17
2019-02-05T07:20:55.746Z,21.73
2019-02-05T07:23:24.449Z,18.73
2019-02-05T07:25:53.180Z,18.12
2019-02-05T07:28:21.856Z,20.27
2019-02-05T07:30:50.506Z,20.15
2019-02-05T07:33:19.333Z,20.08
2019-02-05T07:35:47.921Z,18.07
2019-02-05T07:38:16.573Z,16.02
2019-02-05T07:40:45.151Z,15.45
2019-02-05T07:43:13.719Z,15.13
2019-02-05T07:45:42.311Z,21.20
2019-02-05T07:48:11.012Z,19.52
2019-02-05T07:50:39.612Z,18.32
2019-02-05T07:53:08.540Z,20.17
2019-02-05T07:55:37.117Z,21.50
2019-02-05T07:58:05.870Z,22.32
2019-02-05T08:00:34.488Z,23.20
2019-02-05T08:03:03.081Z,22.80
2019-02-05T08:05:35.597Z,25.82
2019-02-05T08:08:06.477Z,20.20
2019-02-05T08:10:35.104Z,21.68
2019-02-05T08:13:03.771Z,21.80
2019-02-05T08:15:35.344Z,19.23
2019-02-05T08:18:04.875Z,27.27
2019-02-05T08:20:33.519Z,23.38
2019-02-05T08:23:02.218Z,25.20
2019-02-05T08:25:30.864Z,23.90
2019-02-05T08:27:59.827Z,25.25
2019-02-05T08:30:44.551Z,27.73
2019-02-05T08:33:13.428Z,36.80
2019-02-05T08:35:43.817Z,30.52
2019-02-05T08:38:12.775Z,23.70
2019-02-05T08:40:41.705Z,23.73
2019-02-05T08:43:10.379Z,26.15
2019-02-05T08:45:39.578Z,28.30
2019-02-05T08:48:10.619Z,25.08
2019-02-05T08:50:39.514Z,23.05
2019-02-05T08:53:08.176Z,24.15
2019-02-05T08:55:36.808Z,23.52
2019-02-05T08:58:08.240Z,28.65
2019-02-05T09:00:38.934Z,25.70
2019-02-05T09:03:09.328Z,23.35
2019-02-05T09:05:38.217Z,22.22
2019-02-05T09:08:07.158Z,20.60
2019-02-05T09:10:40.670Z,17.80
2019-02-05T09:13:09.702Z,18.67
2019-02-05T09:15:38.349Z,22.22
2019-02-05T09:18:07.486Z,21.90
2019-02-05T09:20:36.142Z,21.85
2019-02-05T09:23:05.352Z,19.10
2019-02-05T09:25:34.109Z,20.72
2019-02-05T09:28:02.668Z,21.00
2019-02-05T09:30:35.932Z,21.30
2019-02-05T09:33:10.076Z,20.07
2019-02-05T09:35:38.679Z,20.30
2019-02-05T09:38:07.393Z,22.23
2019-02-05T09:40:36.049Z,22.73
2019-02-05T09:43:05.148Z,19.53
2019-02-05T09:45:34.276Z,20.30
2019-02-05T09:48:02.912Z,19.60
2019-02-05T09:50:43.740Z,22.30
2019-02-05T09:53:01.967Z,26.80
2019-02-05T09:55:30.560Z,21.47
2019-02-05T09:57:59.255Z,22.70
2019-02-05T10:00:38.885Z,20.33
2019-02-05T10:03:07.856Z,23.67
2019-02-05T10:05:37.087Z,22.40
2019-02-05T10:08:06.100Z,21.70
2019-02-05T10:10:34.853Z,19.80
2019-02-05T10:13:03.593Z,21.10
2019-02-05T10:15:40.667Z,22.63
2019-02-05T10:18:11.080Z,18.43
2019-02-05T10:20:39.750Z,19.40
2019-02-05T10:23:08.947Z,22.17
2019-02-05T10:25:37.896Z,21.70
2019-02-05T10:28:06.788Z,21.60
2019-02-05T10:30:40.799Z,20.67
2019-02-05T10:33:09.596Z,19.50
2019-02-05T10:35:38.321Z,18.47
2019-02-05T10:38:07.038Z,24.20
2019-02-05T10:40:35.764Z,20.23
2019-02-05T10:43:05.070Z,20.77
2019-02-05T10:45:33.869Z,18.23
2019-02-05T10:48:02.894Z,22.03
2019-02-05T10:50:31.628Z,23.00
2019-02-05T10:53:00.187Z,19.57
2019-02-05T10:55:28.768Z,24.40
2019-02-05T10:57:57.498Z,21.70
2019-02-05T11:00:31.112Z,19.67
2019-02-05T11:03:02.145Z,21.67
2019-02-05T11:05:31.540Z,19.10
2019-02-05T11:08:00.210Z,16.13
2019-02-05T11:10:28.902Z,23.30
2019-02-05T11:12:58.246Z,17.13
2019-02-05T11:15:29.059Z,16.87
2019-02-05T11:17:59.989Z,19.20
2019-02-05T11:20:29.746Z,17.30
2019-02-05T11:22:59.663Z,13.23
2019-02-05T11:25:28.352Z,13.60
2019-02-05T11:27:57.012Z,16.03
2019-02-05T11:30:36.843Z,15.70
2019-02-05T11:33:05.544Z,16.50
2019-02-05T11:35:34.387Z,13.43
2019-02-05T11:38:03.196Z,15.40
2019-02-05T11:40:36.529Z,11.73
2019-02-05T11:43:05.341Z,13.67
2019-02-05T11:45:34.432Z,14.07
2019-02-05T11:48:07.216Z,12.30
2019-02-05T11:50:36.152Z,13.77
2019-02-05T11:53:04.974Z,12.33
2019-02-05T11:55:34.669Z,15.57
2019-02-05T11:58:03.414Z,14.40
2019-02-05T12:00:39.788Z,15.37
2019-02-05T12:03:09.728Z,10.17
2019-02-05T12:05:38.600Z,12.10
2019-02-05T12:08:07.929Z,11.00
2019-02-05T12:10:36.612Z,10.57
2019-02-05T12:13:05.369Z,10.47
2019-02-05T12:15:33.994Z,9.93
2019-02-05T12:18:02.712Z,10.90
2019-02-05T12:20:31.479Z,8.20
2019-02-05T12:23:00.716Z,13.73
2019-02-05T12:25:29.347Z,17.27
2019-02-05T12:27:58.000Z,11.77
2019-02-05T12:30:43.827Z,9.07
2019-02-05T12:33:03.009Z,9.77
2019-02-05T12:35:31.654Z,11.17
2019-02-05T12:38:00.391Z,10.33
2019-02-05T12:40:29.201Z,10.57
2019-02-05T12:42:58.379Z,10.50
2019-02-05T12:45:32.589Z,7.90
2019-02-05T12:48:01.305Z,8.93
2019-02-05T12:50:43.260Z,9.60
2019-02-05T12:53:11.985Z,11.03
2019-02-05T12:55:40.677Z,15.57
2019-02-05T12:58:09.321Z,9.17
2019-02-05T13:00:40.596Z,11.47
2019-02-05T13:03:10.132Z,9.30
2019-02-05T13:05:38.998Z,13.07
2019-02-05T13:08:07.913Z,9.07
2019-02-05T13:10:41.616Z,8.30
2019-02-05T13:13:10.507Z,13.43
2019-02-05T13:15:39.216Z,13.53
2019-02-05T13:18:07.879Z,9.03
2019-02-05T13:20:37.004Z,11.40
2019-02-05T13:23:06.596Z,10.83
2019-02-05T13:25:35.316Z,12.27
2019-02-05T13:28:05.805Z,9.67
2019-02-05T13:30:35.821Z,8.90
2019-02-05T13:33:05.520Z,11.67
2019-02-05T13:35:34.460Z,9.63
2019-02-05T13:38:03.351Z,10.87
2019-02-05T13:40:31.928Z,8.13
2019-02-05T13:43:00.619Z,9.70
2019-02-05T13:45:31.742Z,15.20
2019-02-05T13:48:00.734Z,8.93
2019-02-05T13:50:33.357Z,9.87
2019-02-05T13:53:02.203Z,11.50
2019-02-05T13:55:33.571Z,9.40
2019-02-05T13:58:02.349Z,12.00
2019-02-05T14:00:45.628Z,10.10
2019-02-05T14:03:14.261Z,11.80
2019-02-05T14:05:43.594Z,9.80
2019-02-05T14:08:12.281Z,12.83
2019-02-05T14:10:42.684Z,12.00
2019-02-05T14:13:11.300Z,13.43
2019-02-05T14:15:42.689Z,9.93
2019-02-05T14:18:11.779Z,13.50
2019-02-05T14:20:40.497Z,14.47
2019-02-05T14:23:09.120Z,11.93
2019-02-05T14:25:37.790Z,9.63
2019-02-05T14:28:06.472Z,11.27
2019-02-05T14:30:38.131Z,11.73
2019-02-05T14:33:06.887Z,11.83
2019-02-05T14:35:35.609Z,10.90
2019-02-05T14:38:05.506Z,13.30
2019-02-05T14:40:34.096Z,18.07
2019-02-05T14:43:02.721Z,11.50
2019-02-05T14:45:31.453Z,11.53
2019-02-05T14:48:00.372Z,13.90
2019-02-05T14:50:31.663Z,14.13
2019-02-05T14:53:00.352Z,12.23
2019-02-05T14:55:29.004Z,13.57
2019-02-05T14:57:57.797Z,9.40
2019-02-05T15:00:30.846Z,9.23
2019-02-05T15:03:01.977Z,11.93
2019-02-05T15:05:29.989Z,10.70
2019-02-05T15:07:58.635Z,8.10
2019-02-05T15:10:27.338Z,15.03
2019-02-05T15:12:56.080Z,11.10
2019-02-05T15:15:29.014Z,10.00
2019-02-05T15:17:58.043Z,11.40
2019-02-05T15:20:37.602Z,11.83
2019-02-05T15:23:06.916Z,9.60
2019-02-05T15:25:35.616Z,10.07
2019-02-05T15:28:04.631Z,11.47
2019-02-05T15:30:38.123Z,11.90
2019-02-05T15:33:13.239Z,11.27
2019-02-05T15:35:43.503Z,12.23
2019-02-05T15:38:12.088Z,11.60
2019-02-05T15:40:40.711Z,13.93
2019-02-05T15:43:09.295Z,12.13
2019-02-05T15:45:37.989Z,13.67
2019-02-05T15:48:06.572Z,12.07
2019-02-05T15:50:35.132Z,13.27
2019-02-05T15:53:03.783Z,9.33
2019-02-05T15:55:32.412Z,13.23
2019-02-05T15:58:01.296Z,10.77
2019-02-05T16:00:29.993Z,12.03
2019-02-05T16:02:58.712Z,13.60
2019-02-05T16:05:27.273Z,12.57
2019-02-05T16:07:55.851Z,12.97
2019-02-05T16:10:25.551Z,15.33
2019-02-05T16:12:54.214Z,14.90
2019-02-05T16:15:22.847Z,12.83
2019-02-05T16:17:51.501Z,13.47
2019-02-05T16:20:21.692Z,15.17
2019-02-05T16:22:50.816Z,15.53
2019-02-05T16:25:19.648Z,17.37
2019-02-05T16:27:48.304Z,16.67
2019-02-05T16:30:23.152Z,17.20
2019-02-05T16:32:51.812Z,14.77
2019-02-05T16:35:20.370Z,15.97
2019-02-05T16:37:49.197Z,14.93
2019-02-05T16:40:20.291Z,10.60
2019-02-05T16:42:48.870Z,9.87
2019-02-05T16:45:28.183Z,12.00
2019-02-05T16:47:56.910Z,9.87
2019-02-05T16:50:40.118Z,9.70
2019-02-05T16:53:09.436Z,17.20
2019-02-05T16:55:38.063Z,13.23
2019-02-05T16:58:07.379Z,11.53
2019-02-05T17:00:36.976Z,11.63
2019-02-05T17:03:06.499Z,13.37
2019-02-05T17:05:37.858Z,11.23
2019-02-05T17:08:06.892Z,16.07
2019-02-05T17:10:35.457Z,36.13
2019-02-05T17:13:04.881Z,13.37
2019-02-05T17:15:33.507Z,11.47
2019-02-05T17:18:02.233Z,11.57
2019-02-05T17:20:32.416Z,7.93
2019-02-05T17:23:01.153Z,9.43
2019-02-05T17:25:30.064Z,9.57
2019-02-05T17:28:00.466Z,9.63
2019-02-05T17:30:37.279Z,12.73
2019-02-05T17:33:06.322Z,7.90
2019-02-05T17:35:35.497Z,10.40
2019-02-05T17:38:06.758Z,9.77
2019-02-05T17:40:35.507Z,13.60
2019-02-05T17:43:04.904Z,6.90
2019-02-05T17:45:38.916Z,7.47
2019-02-05T17:48:11.012Z,9.97
2019-02-05T17:50:39.662Z,9.53
2019-02-05T17:53:08.213Z,8.37
2019-02-05T17:55:36.872Z,12.83
2019-02-05T17:58:06.072Z,12.93
2019-02-05T18:00:42.452Z,13.60
2019-02-05T18:03:11.075Z,8.57
2019-02-05T18:05:39.881Z,14.93
2019-02-05T18:08:08.409Z,11.23
2019-02-05T18:10:37.000Z,11.53
2019-02-05T18:13:05.891Z,11.70
2019-02-05T18:15:37.085Z,14.37
2019-02-05T18:18:06.683Z,18.37
2019-02-05T18:20:35.711Z,15.30
2019-02-05T18:23:05.207Z,13.20
2019-02-05T18:25:33.792Z,12.03
2019-02-05T18:28:02.422Z,8.50
2019-02-05T18:30:33.240Z,10.23
2019-02-05T18:33:05.527Z,13.67
2019-02-05T18:35:32.228Z,11.43
2019-02-05T18:38:01.992Z,10.90
2019-02-05T18:40:30.648Z,9.03
2019-02-05T18:42:59.264Z,10.80
2019-02-05T18:45:27.852Z,8.27
2019-02-05T18:47:56.411Z,9.00
2019-02-05T18:50:29.165Z,9.20
2019-02-05T18:52:58.293Z,9.73
2019-02-05T18:55:41.560Z,8.33
2019-02-05T18:58:10.254Z,8.37
2019-02-05T19:00:41.912Z,12.70
2019-02-05T19:03:15.421Z,12.10
2019-02-05T19:05:40.976Z,9.83
2019-02-05T19:08:10.263Z,8.20
2019-02-05T19:10:38.979Z,8.97
2019-02-05T19:13:07.773Z,8.60
2019-02-05T19:15:40.733Z,10.32
2019-02-05T19:18:10.524Z,8.37
2019-02-05T19:20:39.090Z,10.73
2019-02-05T19:23:09.622Z,11.68
2019-02-05T19:25:46.040Z,12.88
2019-02-05T19:28:28.023Z,13.50
2019-02-05T19:30:58.323Z,10.08
2019-02-05T19:33:27.657Z,16.30
2019-02-05T19:35:56.316Z,13.50
2019-02-05T19:38:24.879Z,14.03
2019-02-05T19:40:57.604Z,14.17
2019-02-05T19:43:23.856Z,13.22
2019-02-05T19:46:05.580Z,10.85
2019-02-05T19:48:35.786Z,13.45
2019-02-05T19:51:04.983Z,12.23
2019-02-05T19:53:33.640Z,10.25
2019-02-05T19:56:02.496Z,9.33
2019-02-05T19:58:31.391Z,11.57
2019-02-05T20:00:59.965Z,10.05
2019-02-05T20:03:38.394Z,11.68
2019-02-05T20:05:58.824Z,9.58
2019-02-05T20:08:27.520Z,10.05
2019-02-05T20:10:56.076Z,11.28
2019-02-05T20:13:24.660Z,9.05
2019-02-05T20:15:53.520Z,10.60
2019-02-05T20:18:22.107Z,10.45
2019-02-05T20:20:50.671Z,13.70
2019-02-05T20:23:19.268Z,12.63
2019-02-05T20:25:47.827Z,12.55
2019-02-05T20:28:16.493Z,11.08
2019-02-05T20:30:45.050Z,11.70
2019-02-05T20:33:13.845Z,13.50
2019-02-05T20:35:42.406Z,11.73
2019-02-05T20:38:11.133Z,12.45
2019-02-05T20:40:39.744Z,34.27
2019-02-05T20:43:08.348Z,15.45
2019-02-05T20:45:36.903Z,15.05
2019-02-05T20:48:06.536Z,10.18
2019-02-05T20:50:35.549Z,12.50
2019-02-05T20:53:13.456Z,11.20
2019-02-05T20:55:35.036Z,15.00
2019-02-05T20:58:03.861Z,13.88
2019-02-05T21:00:33.059Z,16.35
2019-02-05T21:03:01.715Z,13.10
2019-02-05T21:05:30.347Z,16.00
2019-02-05T21:07:59.200Z,18.30
2019-02-05T21:10:29.304Z,14.70
2019-02-05T21:12:57.962Z,11.85
2019-02-05T21:15:26.755Z,13.10
2019-02-05T21:17:55.619Z,14.05
2019-02-05T21:20:33.937Z,14.25
2019-02-05T21:23:02.524Z,13.70
2019-02-05T21:25:31.262Z,12.73
2019-02-05T21:27:59.907Z,13.85
2019-02-05T21:30:28.813Z,12.63
2019-02-05T21:32:57.399Z,16.20
2019-02-05T21:35:25.966Z,16.97
2019-02-05T21:37:54.599Z,18.90
2019-02-05T21:40:27.179Z,24.40
2019-02-05T21:42:55.879Z,32.08
2019-02-05T21:45:30.402Z,17.95
2019-02-05T21:47:58.956Z,18.52
2019-02-05T21:50:27.548Z,13.10
2019-02-05T21:52:56.313Z,12.75
2019-02-05T21:55:28.460Z,13.80
2019-02-05T21:57:57.270Z,13.30
2019-02-05T22:00:36.073Z,12.98
2019-02-05T22:03:06.267Z,13.60
2019-02-05T22:05:34.842Z,10.60
2019-02-05T22:08:04.037Z,13.98
2019-02-05T22:10:32.643Z,13.78
2019-02-05T22:13:01.182Z,18.07
2019-02-05T22:15:30.241Z,18.23
2019-02-05T22:17:58.872Z,15.18
2019-02-05T22:20:28.801Z,17.30
2019-02-05T22:22:57.459Z,15.68
2019-02-05T22:25:29.023Z,13.25
2019-02-05T22:27:57.654Z,13.90
2019-02-05T22:30:34.078Z,18.80
2019-02-05T22:33:02.873Z,17.87
2019-02-05T22:35:31.460Z,14.58
2019-02-05T22:38:00.087Z,14.93
2019-02-05T22:40:28.775Z,12.65
2019-02-05T22:42:57.376Z,16.23
2019-02-05T22:45:30.983Z,14.93
2019-02-05T22:47:59.608Z,15.43
2019-02-05T22:50:30.709Z,16.93
2019-02-05T22:52:59.711Z,14.38
2019-02-05T22:55:28.367Z,16.10
2019-02-05T22:57:56.999Z,15.78
2019-02-05T23:00:50.699Z,15.00
2019-02-05T23:03:24.995Z,13.83
2019-02-05T23:06:08.556Z,15.72
2019-02-05T23:08:37.180Z,16.62
2019-02-05T23:11:35.785Z,15.58
2019-02-05T23:14:04.776Z,14.10
2019-02-05T23:16:33.365Z,13.78
2019-02-05T23:19:01.999Z,19.87
2019-02-05T23:21:30.728Z,14.18
2019-02-05T23:23:59.489Z,15.08
2019-02-05T23:26:28.144Z,15.80
2019-02-05T23:28:56.772Z,14.98
2019-02-05T23:31:25.372Z,19.32
2019-02-05T23:33:53.928Z,16.27
2019-02-05T23:36:22.557Z,17.87
2019-02-05T23:38:51.141Z,12.95
2019-02-05T23:41:19.693Z,17.52
2019-02-05T23:43:48.284Z,15.60
2019-02-05T23:46:16.833Z,13.70
2019-02-05T23:48:45.415Z,15.28
2019-02-05T23:51:13.971Z,12.78
2019-02-05T23:53:42.559Z,12.68
2019-02-05T23:56:11.476Z,12.70
2019-02-05T23:58:40.060Z,14.10
